KTAD/TAD METAR and TAF weather

Enter ICAO airport designator
Station Type Date Time Source
KTAD METAR 2021/08/05 02:54 UTC NOAA

KTAD 050254Z AUTO 17003KT 10SM CLR 18/14 A3029 RMK AO2 SLP192 T01780144 53009


Station Type Date Time Source
KTAD Decoded METAR 2021/08/05 02:54 UTC NOAA

Trinidad, Perry Stokes Airport, CO, United States (KTAD) 37-16N 104-26W
Aug 04, 2021 - 10:54 PM EDT / 2021.08.05 0254 UTC
Wind: from the S (170 degrees) at 3 MPH (3 KT):0
Visibility: 10 mile(s):0
Sky conditions: clear
Temperature: 64.0 F (17.8 C)
Dew Point: 57.9 F (14.4 C)
Relative Humidity: 80%
Pressure (altimeter): 30.29 in. Hg (1025 hPa)
Pressure tendency: 0.03 inches (0.9 hPa) higher than three hours ago
ob: KTAD 050254Z AUTO 17003KT 10SM CLR 18/14 A3029 RMK AO2 SLP192 T01780144 53009
cycle: 3

Station Type Date Time Source
KTAD TAF UTC NOAA

Error!

Example: see airport list